»·PEaware :: SWA1717 KOAK-KSUN

SWA1717 :: KOAK-KSUN

FLIGHT INFORMATION

Flight Status: Arrived
Operator:
Southwest Airlines
More flights by this operator :: More flights under this callsign
Pilot: Ben L. (6391)
Aircraft: BOEING 737-800
(B738)
More flights by this aircraft type
Origin: KOAK Metro Oakland Intl
United States
Destination: KSUN Friedman Meml
United States
More flights between these airports :: More routes between these airports
Route: OAK3 OAK SAC CLEIN PRESN
File this flight plan on PilotEdge
Remarks:
Altitude:
(Current/Filed)
35,000ft
Speed:
(Current/Filed)
450kts
Departed: 17-Mar-19 07:21 PM
Arrived: 17-Mar-19 08:35 PM
Distance/Time
Traveled:
500nm/1:14
Distance/Time
To Go:
Arrived

Flight Plot

Page will automatically refresh every two minutes.

Flight plan parsing failed; only flown route is shown


Map Options




Map Legend


Flown Route
Filed Route
Departure Airport
Arrival Airport
Navaid (VOR, NDB)
Fix

Horizontal Profiles

Position Reports

Time Latitude Longitude Heading Altitude Ground
Speed
17-Mar-19 18:53 37.710231 -122.210072 0 16ft 0kts
17-Mar-19 18:54 37.710231 -122.210072 128 16ft 0kts
17-Mar-19 18:55 37.710231 -122.210072 128 16ft 0kts
17-Mar-19 18:56 37.710231 -122.210072 128 16ft 0kts
17-Mar-19 18:57 37.710231 -122.210072 128 16ft 0kts
17-Mar-19 18:58 37.710231 -122.210072 128 16ft 0kts
17-Mar-19 18:59 37.710231 -122.210072 128 16ft 0kts
17-Mar-19 19:00 37.710231 -122.210072 128 16ft 0kts
17-Mar-19 19:01 37.710231 -122.210072 128 16ft 0kts
17-Mar-19 19:02 37.710231 -122.210072 128 16ft 0kts
17-Mar-19 19:03 37.710231 -122.210072 128 16ft 0kts
17-Mar-19 19:04 37.710231 -122.210072 128 16ft 0kts
17-Mar-19 19:05 37.710231 -122.210072 128 16ft 0kts
17-Mar-19 19:06 37.710231 -122.210072 128 16ft 0kts
17-Mar-19 19:07 37.710231 -122.210072 128 16ft 0kts
17-Mar-19 19:08 37.710231 -122.210072 128 16ft 0kts
17-Mar-19 19:09 37.710231 -122.210072 128 16ft 0kts
17-Mar-19 19:10 37.710231 -122.210073 128 16ft 0kts
17-Mar-19 19:11 37.710430 -122.210446 104 16ft 2kts
17-Mar-19 19:12 37.710282 -122.211098 39 16ft 0kts
17-Mar-19 19:13 37.710279 -122.211103 36 16ft 0kts
17-Mar-19 19:14 37.710467 -122.211152 314 16ft 5kts
17-Mar-19 19:15 37.709518 -122.213018 218 16ft 0kts
17-Mar-19 19:17 37.708831 -122.213837 225 16ft 20kts
17-Mar-19 19:18 37.705399 -122.214090 129 16ft 15kts
17-Mar-19 19:19 37.702695 -122.211511 176 16ft 0kts
17-Mar-19 19:20 37.701950 -122.211915 222 16ft 13kts
17-Mar-19 19:21 37.717894 -122.236425 311 841ft 172kts
17-Mar-19 19:22 37.751815 -122.287926 309 2149ft 203kts
17-Mar-19 19:23 37.801885 -122.333997 358 3817ft 272kts
17-Mar-19 19:24 37.865940 -122.284830 45 8033ft 286kts
17-Mar-19 19:25 37.925316 -122.210271 45 11030ft 331kts
17-Mar-19 19:26 37.992783 -122.125317 45 14545ft 354kts
17-Mar-19 19:27 38.065060 -122.034049 45 17919ft 377kts
17-Mar-19 19:28 38.135414 -121.933542 53 19083ft 385kts
17-Mar-19 19:29 38.201177 -121.822626 53 20816ft 397kts
17-Mar-19 19:30 38.269259 -121.707343 53 23522ft 418kts
17-Mar-19 19:31 38.340686 -121.585983 52 26008ft 436kts
17-Mar-19 19:32 38.414696 -121.459746 51 28244ft 453kts
17-Mar-19 19:33 38.491599 -121.328061 51 30088ft 475kts
17-Mar-19 19:34 38.571129 -121.191450 51 32237ft 481kts
17-Mar-19 19:35 38.649920 -121.055452 50 34717ft 470kts
17-Mar-19 19:36 38.728572 -120.919183 51 35152ft 479kts
17-Mar-19 19:37 38.807719 -120.781420 51 35147ft 478kts
17-Mar-19 19:38 38.886782 -120.643149 50 35156ft 483kts
17-Mar-19 19:38 38.953425 -120.526177 50 35180ft 489kts
17-Mar-19 19:39 39.034333 -120.383548 51 35211ft 494kts
17-Mar-19 19:41 39.124039 -120.224766 52 35206ft 494kts
17-Mar-19 19:42 39.202918 -120.084522 52 35207ft 494kts
17-Mar-19 19:42 39.264048 -119.975374 52 35207ft 494kts
17-Mar-19 19:43 39.344062 -119.831914 52 35176ft 495kts
17-Mar-19 19:45 39.437534 -119.663463 52 35161ft 498kts
17-Mar-19 19:45 39.504481 -119.542235 52 35177ft 498kts
17-Mar-19 19:46 39.584984 -119.395816 52 35187ft 498kts
17-Mar-19 19:47 39.661784 -119.255597 53 35180ft 498kts
17-Mar-19 19:48 39.742046 -119.108486 53 35170ft 497kts
17-Mar-19 19:49 39.821739 -118.961697 53 35173ft 497kts
17-Mar-19 19:50 39.900772 -118.815397 53 35160ft 493kts
17-Mar-19 19:51 39.979439 -118.669074 53 35159ft 493kts
17-Mar-19 19:52 40.063162 -118.527307 41 35163ft 490kts
17-Mar-19 19:53 40.152365 -118.415216 40 35159ft 489kts
17-Mar-19 19:54 40.249505 -118.293297 41 35152ft 488kts
17-Mar-19 19:55 40.344038 -118.174256 41 35154ft 488kts
17-Mar-19 19:56 40.442121 -118.050212 41 35173ft 487kts
17-Mar-19 19:57 40.539783 -117.926151 41 35183ft 488kts
17-Mar-19 19:58 40.636964 -117.802151 41 35183ft 487kts
17-Mar-19 19:59 40.734860 -117.676683 41 35185ft 488kts
17-Mar-19 20:00 40.831967 -117.551667 41 35186ft 488kts
17-Mar-19 20:01 40.929599 -117.425416 41 35187ft 489kts
17-Mar-19 20:02 41.020040 -117.307998 42 35647ft 496kts
17-Mar-19 20:03 41.112249 -117.187896 42 35300ft 495kts
17-Mar-19 20:04 41.208709 -117.061708 42 35181ft 498kts
17-Mar-19 20:05 41.307824 -116.931426 41 35180ft 503kts
17-Mar-19 20:06 41.407575 -116.799672 41 35184ft 504kts
17-Mar-19 20:07 41.507109 -116.667584 41 35197ft 504kts
17-Mar-19 20:08 41.606778 -116.534667 41 35240ft 504kts
17-Mar-19 20:09 41.706224 -116.401418 41 35244ft 506kts
17-Mar-19 20:10 41.798040 -116.277902 42 35236ft 504kts
17-Mar-19 20:11 41.897100 -116.144189 42 35236ft 505kts
17-Mar-19 20:12 41.996107 -116.009884 42 35240ft 506kts
17-Mar-19 20:13 42.094873 -115.875237 42 35242ft 505kts
17-Mar-19 20:14 42.187512 -115.748373 42 35237ft 505kts
17-Mar-19 20:15 42.285620 -115.613330 42 35242ft 504kts
17-Mar-19 20:16 42.383436 -115.478037 42 35024ft 507kts
17-Mar-19 20:17 42.477943 -115.346519 42 32613ft 494kts
17-Mar-19 20:18 42.570136 -115.217951 41 30072ft 488kts
17-Mar-19 20:19 42.664003 -115.086466 42 27250ft 481kts
17-Mar-19 20:20 42.756562 -114.956253 42 24456ft 482kts
17-Mar-19 20:21 42.848897 -114.825719 42 22435ft 461kts
17-Mar-19 20:22 42.932555 -114.706767 42 20418ft 409kts
17-Mar-19 20:23 43.006756 -114.600905 43 17305ft 362kts
17-Mar-19 20:24 43.072759 -114.506606 44 14160ft 326kts
17-Mar-19 20:25 43.126847 -114.429201 45 11785ft 298kts
17-Mar-19 20:26 43.181503 -114.350810 44 9808ft 270kts
17-Mar-19 20:27 43.232052 -114.287380 35 8989ft 268kts
17-Mar-19 20:28 43.283519 -114.234054 36 8806ft 203kts
17-Mar-19 20:29 43.327260 -114.190593 19 8580ft 178kts
17-Mar-19 20:30 43.373121 -114.200539 333 8060ft 170kts
17-Mar-19 20:31 43.414552 -114.227759 340 7431ft 154kts
17-Mar-19 20:32 43.452837 -114.248557 332 6264ft 142kts
17-Mar-19 20:33 43.485704 -114.278052 325 5658ft 139kts
17-Mar-19 20:34 43.508279 -114.300045 320 5327ft 27kts
17-Mar-19 20:35 43.507440 -114.300562 145 5327ft 6kts
17-Mar-19 20:36 43.505756 -114.299601 108 5327ft 0kts
17-Mar-19 20:37 43.505754 -114.299593 109 5327ft 0kts
17-Mar-19 20:38 43.505754 -114.299593 109 5327ft 0kts
17-Mar-19 20:39 43.505754 -114.299593 110 5327ft 0kts
17-Mar-19 20:40 43.505754 -114.299593 110 5327ft 0kts

Navigation Log

Ident Type
Flight plan parsing failed, navigation log unavailable